Time;durP1;ratioP1;P1;durP2;ratioP2;P2;SDS_P1;SDS_P2;PMS_P1;PMS_P2;Temp;Humidity;BMP_temperature;BMP_pressure;BME280_temperature;BME280_humidity;BME280_pressure;Samples;Min_cycle;Max_cycle;Signal;HPM_P1;HPM_P2
2022/09/24 00:00:08;;;;;;;3.42;3.13;;;;;;;12.08;73.49;98589.56;5060264;28;20137;-77
2022/09/24 00:02:33;;;;;;;5.22;3.25;;;;;;;11.96;73.12;98597.81;5065392;28;20113;-77
2022/09/24 00:04:58;;;;;;;4.22;3.20;;;;;;;12.07;73.32;98593.28;5063150;28;20028;-77
2022/09/24 00:07:24;;;;;;;3.92;3.25;;;;;;;12.07;73.43;98590.63;5056547;28;20060;-77
2022/09/24 00:09:49;;;;;;;3.83;3.05;;;;;;;12.11;73.91;98597.03;5062855;28;20036;-77
2022/09/24 00:12:14;;;;;;;6.10;3.63;;;;;;;12.12;73.36;98582.63;5058983;28;20035;-77
2022/09/24 00:14:40;;;;;;;4.72;3.53;;;;;;;12.19;72.51;98588.53;5061704;28;20377;-78
2022/09/24 00:17:05;;;;;;;5.10;3.03;;;;;;;12.11;73.30;98592.50;5059435;28;20116;-77
2022/09/24 00:19:31;;;;;;;3.67;3.38;;;;;;;12.08;73.11;98574.28;5056932;28;20059;-77
2022/09/24 00:21:56;;;;;;;2.83;2.63;;;;;;;12.02;73.34;98581.53;5058281;28;20025;-77
2022/09/24 00:27:05;;;;;;;3.92;3.40;;;;;;;11.29;76.21;98574.50;5055792;28;20066;-77
2022/09/24 00:29:33;;;;;;;3.65;3.20;;;;;;;11.68;73.93;98574.19;5062592;28;20025;-77
2022/09/24 00:31:58;;;;;;;4.75;3.33;;;;;;;11.27;76.06;98565.97;5037230;28;20036;-76
2022/09/24 00:34:23;;;;;;;4.10;3.47;;;;;;;11.72;74.28;98560.03;5057168;28;20082;-76
2022/09/24 00:36:49;;;;;;;4.30;3.42;;;;;;;11.84;73.60;98567.81;5055656;28;20040;-77
2022/09/24 00:39:15;;;;;;;4.28;3.53;;;;;;;11.84;73.05;98557.94;5054461;28;20047;-79
2022/09/24 00:41:46;;;;;;;3.95;3.08;;;;;;;11.79;73.81;98560.59;5058960;28;20033;-78
2022/09/24 00:44:53;;;;;;;4.03;3.45;;;;;;;11.82;73.99;98564.59;5060345;28;20047;-79
2022/09/24 00:47:27;;;;;;;3.50;3.15;;;;;;;11.81;74.12;98563.81;4969866;28;20261;-77
2022/09/24 00:50:00;;;;;;;4.97;3.35;;;;;;;11.71;74.33;98552.25;4974607;28;20030;-76
2022/09/24 00:52:25;;;;;;;3.95;3.38;;;;;;;11.78;73.86;98559.00;5009006;28;20036;-77
2022/09/24 00:54:52;;;;;;;4.72;3.60;;;;;;;11.78;73.67;98550.97;5058233;28;20094;-77
2022/09/24 00:57:18;;;;;;;7.80;3.53;;;;;;;11.72;74.01;98554.69;5054157;28;20032;-77
2022/09/24 00:59:44;;;;;;;5.15;3.53;;;;;;;11.69;73.94;98552.53;5062019;28;20028;-77
2022/09/24 01:02:10;;;;;;;3.72;3.42;;;;;;;11.68;74.07;98558.97;5040598;28;20055;-77
2022/09/24 01:04:35;;;;;;;3.63;3.33;;;;;;;11.65;73.84;98547.94;5061957;28;20044;-77
2022/09/24 01:07:01;;;;;;;3.53;3.22;;;;;;;11.68;74.13;98558.16;5063344;28;20339;-77
2022/09/24 01:09:27;;;;;;;3.70;3.40;;;;;;;11.61;74.19;98553.03;5060039;28;20027;-77
2022/09/24 01:12:33;;;;;;;3.75;3.38;;;;;;;11.55;74.33;98551.41;5022483;28;20044;-77
2022/09/24 01:15:18;;;;;;;3.67;3.38;;;;;;;11.55;74.16;98556.75;5046921;28;20053;-77
2022/09/24 01:18:15;;;;;;;4.53;4.15;;;;;;;11.55;74.24;98551.41;5033940;28;20033;-77
2022/09/24 01:20:54;;;;;;;4.15;3.63;;;;;;;11.49;74.35;98549.75;5054700;28;20384;-77
2022/09/24 01:23:29;;;;;;;5.28;3.45;;;;;;;11.52;73.93;98548.44;5053954;28;20033;-77
2022/09/24 01:26:03;;;;;;;6.13;4.00;;;;;;;11.52;74.38;98549.25;5063883;28;20025;-77
2022/09/24 01:29:04;;;;;;;5.95;4.85;;;;;;;11.51;73.81;98546.84;5060271;28;20107;-77
2022/09/24 01:31:40;;;;;;;5.35;3.75;;;;;;;11.50;74.46;98546.03;5064554;28;20460;-77
2022/09/24 01:34:09;;;;;;;4.97;3.83;;;;;;;11.50;74.59;98550.56;5056386;28;20023;-77
2022/09/24 01:36:38;;;;;;;4.25;3.70;;;;;;;11.45;74.60;98548.66;5059038;28;20064;-77
2022/09/24 01:39:07;;;;;;;4.10;3.70;;;;;;;11.42;74.99;98538.53;5054027;28;20378;-76
2022/09/24 01:41:34;;;;;;;4.57;3.70;;;;;;;11.41;74.64;98542.25;5042943;28;20028;-76
2022/09/24 01:44:00;;;;;;;6.40;4.00;;;;;;;11.44;74.44;98547.06;5056542;28;20233;-77
2022/09/24 01:46:27;;;;;;;4.22;3.83;;;;;;;11.40;74.73;98539.84;5058128;28;20020;-77
2022/09/24 01:48:52;;;;;;;3.78;3.13;;;;;;;11.46;74.67;98549.47;5062627;28;20111;-77
2022/09/24 01:51:24;;;;;;;5.25;3.67;;;;;;;11.53;74.38;98540.13;5052897;28;20128;-77
2022/09/24 01:54:17;;;;;;;7.07;4.10;;;;;;;11.50;74.66;98540.69;5034993;28;20123;-77
2022/09/24 01:56:52;;;;;;;4.00;3.60;;;;;;;11.40;74.78;98534.50;5044374;28;20025;-77
2022/09/24 01:59:45;;;;;;;3.80;3.47;;;;;;;11.57;74.31;98532.41;5045669;28;20104;-77
2022/09/24 02:02:29;;;;;;;4.00;3.63;;;;;;;11.48;74.35;98532.13;5057419;28;20041;-78
2022/09/24 02:05:11;;;;;;;4.32;3.92;;;;;;;11.41;74.77;98534.22;5055061;28;20620;-77
2022/09/24 02:08:03;;;;;;;8.52;4.25;;;;;;;11.47;74.81;98530.50;5058612;28;20016;-78
2022/09/24 02:10:36;;;;;;;4.32;3.92;;;;;;;11.57;74.22;98527.06;5059806;28;20028;-77
2022/09/24 02:13:09;;;;;;;4.55;3.70;;;;;;;11.50;74.58;98521.16;5053658;28;20025;-77
2022/09/24 02:15:40;;;;;;;5.80;4.00;;;;;;;11.57;74.40;98519.06;5057900;28;20080;-76
2022/09/24 02:18:09;;;;;;;5.18;4.20;;;;;;;11.62;74.59;98533.22;5055836;28;20025;-76
2022/09/24 02:20:37;;;;;;;4.55;4.15;;;;;;;11.53;74.49;98524.09;5055268;28;20464;-76
2022/09/24 02:23:04;;;;;;;3.72;3.38;;;;;;;11.49;74.86;98528.38;5055245;28;20029;-75
2022/09/24 02:25:42;;;;;;;5.95;3.65;;;;;;;11.63;74.46;98521.47;5061436;28;20452;-75
2022/09/24 02:28:07;;;;;;;4.72;3.67;;;;;;;11.53;74.58;98521.44;5060383;28;20029;-76
2022/09/24 02:30:40;;;;;;;4.22;3.75;;;;;;;11.56;74.50;98517.44;5063207;28;20040;-75
2022/09/24 02:34:19;;;;;;;4.60;4.20;;;;;;;11.50;75.20;98518.50;5064416;28;20020;-75
2022/09/24 02:35:55;;;;;;;8.30;3.83;;;;;;;11.53;74.77;98518.75;5061977;28;20401;-75
2022/09/24 02:38:21;;;;;;;6.82;3.80;;;;;;;11.53;75.29;98505.41;5058071;28;20490;-78
2022/09/24 02:40:48;;;;;;;6.18;3.42;;;;;;;11.63;74.90;98508.13;5059449;28;20033;-78
2022/09/24 02:43:13;;;;;;;5.18;3.92;;;;;;;11.72;74.78;98517.28;5048748;28;20028;-78
2022/09/24 02:45:39;;;;;;;3.88;3.53;;;;;;;11.55;75.18;98515.84;5066518;28;20123;-78
2022/09/24 02:48:04;;;;;;;6.65;4.35;;;;;;;11.66;74.45;98515.63;5072172;28;20044;-78
2022/09/24 02:50:29;;;;;;;6.47;4.18;;;;;;;11.56;75.00;98510.22;5062429;28;20123;-78
2022/09/24 02:52:55;;;;;;;4.57;3.55;;;;;;;11.52;75.26;98517.16;5059296;28;20087;-79
2022/09/24 02:55:20;;;;;;;4.63;3.85;;;;;;;11.50;75.16;98511.28;5069030;28;20041;-78
2022/09/24 02:57:46;;;;;;;4.95;3.90;;;;;;;11.45;75.94;98515.78;5061393;28;20032;-78
2022/09/24 03:00:12;;;;;;;4.47;3.83;;;;;;;11.41;75.55;98510.19;5046500;28;20029;-78
2022/09/24 03:02:37;;;;;;;4.30;3.83;;;;;;;11.45;75.92;98511.25;5060356;28;20063;-78
2022/09/24 03:05:03;;;;;;;5.45;4.38;;;;;;;11.54;75.81;98506.22;5042106;28;20125;-79
2022/09/24 03:07:29;;;;;;;4.78;4.38;;;;;;;11.50;75.69;98500.59;5044339;28;20649;-78
2022/09/24 03:09:54;;;;;;;4.25;3.85;;;;;;;11.67;74.79;98498.53;5066064;28;20025;-78
2022/09/24 03:12:19;;;;;;;5.70;4.15;;;;;;;11.52;75.57;98492.31;5060829;28;20032;-78
2022/09/24 03:14:44;;;;;;;5.25;4.30;;;;;;;11.57;75.11;98497.69;5048012;28;20075;-79
2022/09/24 03:17:10;;;;;;;5.25;4.38;;;;;;;11.57;75.33;98501.16;5064851;28;20077;-78
2022/09/24 03:19:36;;;;;;;5.35;4.35;;;;;;;11.63;75.50;98497.44;5060351;28;20028;-77
2022/09/24 03:22:01;;;;;;;4.57;3.88;;;;;;;11.72;74.71;98487.84;5057775;28;20035;-77
2022/09/24 03:24:27;;;;;;;5.38;4.38;;;;;;;11.67;74.88;98493.19;5046143;28;20123;-77
2022/09/24 03:26:52;;;;;;;4.38;3.97;;;;;;;11.54;75.06;98488.31;5059450;28;20497;-77
2022/09/24 03:30:58;;;;;;;6.85;3.78;;;;;;;11.53;75.47;98484.00;5050556;28;20028;-76
2022/09/24 03:32:03;;;;;;;7.32;4.25;;;;;;;11.53;75.71;98484.00;5044620;28;20040;-77
2022/09/24 03:34:28;;;;;;;8.02;5.15;;;;;;;11.54;75.61;98480.28;5063472;28;20028;-76
2022/09/24 03:36:53;;;;;;;4.40;4.00;;;;;;;11.55;75.67;98475.75;5056072;28;20397;-76
2022/09/24 03:39:19;;;;;;;5.53;3.90;;;;;;;11.46;75.90;98471.97;5053964;28;20028;-77
2022/09/24 03:41:44;;;;;;;5.95;4.30;;;;;;;11.51;76.08;98472.00;5057386;28;20539;-76
2022/09/24 03:44:09;;;;;;;4.95;4.25;;;;;;;11.48;75.48;98476.00;5058282;28;20531;-76
2022/09/24 03:46:35;;;;;;;4.07;3.67;;;;;;;11.40;75.81;98476.50;5061395;28;20025;-76
2022/09/24 03:49:01;;;;;;;9.95;3.65;;;;;;;11.39;76.39;98474.91;5063977;28;20024;-80
2022/09/24 03:51:28;;;;;;;13.32;4.63;;;;;;;11.34;76.00;98464.19;5060819;28;20115;-80
2022/09/24 03:53:53;;;;;;;4.13;3.72;;;;;;;11.32;76.53;98458.31;5037507;28;20114;-80
2022/09/24 03:58:47;;;;;;;4.60;3.80;;;;;;;11.21;76.46;98448.66;5124634;27;20051;-81
2022/09/24 04:01:19;;;;;;;4.95;4.40;;;;;;;11.42;76.01;98457.53;5125927;27;20087;-81
2022/09/24 04:03:44;;;;;;;5.65;3.83;;;;;;;11.44;76.31;98471.44;5127681;27;20713;-82
2022/09/24 04:06:10;;;;;;;4.47;4.03;;;;;;;11.50;75.49;98457.03;5121411;27;20034;-81
2022/09/24 04:08:35;;;;;;;4.22;3.70;;;;;;;11.47;74.87;98469.03;5106739;27;20027;-82
2022/09/24 04:11:01;;;;;;;3.95;3.45;;;;;;;11.53;75.85;98469.88;5121755;27;20482;-82
2022/09/24 04:13:26;;;;;;;5.40;4.68;;;;;;;11.46;75.50;98454.09;5128823;27;20035;-81
2022/09/24 04:15:52;;;;;;;4.47;4.05;;;;;;;11.42;76.23;98458.34;5122531;27;20587;-81
2022/09/24 04:18:18;;;;;;;4.88;3.80;;;;;;;11.30;75.98;98439.88;5128573;27;20034;-81
2022/09/24 04:20:44;;;;;;;6.20;3.95;;;;;;;11.19;75.93;98437.44;5125562;27;20035;-82
2022/09/24 04:23:10;;;;;;;4.22;3.83;;;;;;;11.30;76.59;98460.44;5124467;27;20458;-81
2022/09/24 04:25:36;;;;;;;5.53;4.10;;;;;;;11.07;76.90;98434.97;5124769;27;20046;-82
2022/09/24 04:28:04;;;;;;;5.43;3.70;;;;;;;11.27;76.86;98455.59;5130505;27;20034;-81
2022/09/24 04:30:31;;;;;;;4.57;3.83;;;;;;;11.18;76.93;98447.28;5123229;27;20511;-81
2022/09/24 04:32:59;;;;;;;4.78;4.05;;;;;;;11.24;76.36;98467.66;5130422;27;20067;-81
2022/09/24 04:35:26;;;;;;;4.35;3.95;;;;;;;11.16;77.28;98473.47;5124036;27;20054;-82
2022/09/24 04:37:52;;;;;;;4.60;4.20;;;;;;;11.14;77.00;98472.13;5122229;27;20570;-81
2022/09/24 04:40:17;;;;;;;6.10;3.70;;;;;;;11.01;77.06;98452.03;5103819;28;20040;-81
2022/09/24 04:42:46;;;;;;;4.90;4.50;;;;;;;11.08;76.51;98460.63;5090660;28;20382;-81
2022/09/24 04:45:18;;;;;;;4.05;3.53;;;;;;;11.07;77.19;98460.91;5105374;28;20383;-82
2022/09/24 04:47:46;;;;;;;5.57;4.25;;;;;;;11.06;77.14;98469.97;5103750;27;20471;-82
2022/09/24 04:50:12;;;;;;;4.72;4.18;;;;;;;10.98;77.01;98455.25;5104239;27;20471;-81
2022/09/24 04:52:38;;;;;;;6.28;3.72;;;;;;;11.03;76.71;98459.81;5106023;28;20032;-82
2022/09/24 04:55:04;;;;;;;5.15;3.92;;;;;;;11.20;76.42;98473.78;5104822;28;20084;-81
2022/09/24 04:57:34;;;;;;;4.65;4.15;;;;;;;11.12;76.14;98472.38;5102777;28;20046;-82
2022/09/24 05:00:00;;;;;;;4.75;4.00;;;;;;;11.15;77.06;98481.75;5097676;28;20027;-81
2022/09/24 05:02:25;;;;;;;5.13;3.83;;;;;;;11.09;76.77;98464.09;5106135;28;20478;-80
2022/09/24 05:04:51;;;;;;;5.35;4.50;;;;;;;11.11;77.16;98484.16;5100278;28;20529;-82
2022/09/24 05:07:16;;;;;;;5.13;4.47;;;;;;;11.09;76.92;98470.25;5091434;28;20114;-81
2022/09/24 05:09:42;;;;;;;6.57;4.90;;;;;;;11.21;76.82;98475.38;5109216;28;20028;-82
2022/09/24 05:12:07;;;;;;;5.82;5.07;;;;;;;11.10;76.06;98453.16;5100214;28;20418;-82
2022/09/24 05:14:33;;;;;;;7.25;4.63;;;;;;;11.14;76.48;98466.78;5106658;28;20079;-82
2022/09/24 05:16:58;;;;;;;4.78;4.32;;;;;;;11.20;76.60;98481.78;5105838;28;20133;-82
2022/09/24 05:19:23;;;;;;;6.25;4.50;;;;;;;11.07;77.12;98464.34;5085833;28;20453;-82
2022/09/24 05:21:49;;;;;;;10.60;4.50;;;;;;;11.25;76.81;98479.91;5067868;28;20415;-82
2022/09/24 05:24:14;;;;;;;5.93;4.22;;;;;;;11.14;76.42;98454.22;5089562;28;20062;-82
2022/09/24 05:29:30;;;;;;;8.00;5.70;;;;;;;11.23;76.19;98470.56;5101654;28;20490;-82
2022/09/24 05:31:55;;;;;;;8.35;4.53;;;;;;;11.21;76.73;98475.38;5104779;28;20059;-82
2022/09/24 05:34:20;;;;;;;6.97;5.32;;;;;;;11.03;77.10;98452.59;5101628;28;20115;-82
2022/09/24 05:36:48;;;;;;;5.82;4.18;;;;;;;10.99;77.41;98470.19;5104202;28;20055;-80
2022/09/24 05:39:14;;;;;;;7.35;4.60;;;;;;;11.19;77.17;98483.66;5101243;28;20027;-80
2022/09/24 05:41:40;;;;;;;9.57;4.93;;;;;;;11.00;76.80;98445.13;5100463;28;20080;-82
2022/09/24 05:44:05;;;;;;;5.82;4.95;;;;;;;11.22;76.90;98471.63;5104858;28;20027;-82
2022/09/24 05:46:31;;;;;;;5.97;5.00;;;;;;;11.14;76.90;98472.94;5102018;28;20076;-83
2022/09/24 05:48:57;;;;;;;6.70;5.35;;;;;;;11.24;76.71;98482.88;5085275;28;20032;-81
2022/09/24 05:51:23;;;;;;;5.78;4.45;;;;;;;11.15;76.74;98482.56;5106747;28;20015;-82
2022/09/24 05:53:49;;;;;;;4.72;4.28;;;;;;;11.06;76.89;98475.31;5103867;28;20035;-82
2022/09/24 05:56:15;;;;;;;4.82;4.13;;;;;;;11.25;76.22;98479.09;5104938;28;20032;-83
2022/09/24 05:58:40;;;;;;;4.47;3.83;;;;;;;11.31;76.73;98481.53;5087171;28;20030;-82
2022/09/24 06:01:06;;;;;;;4.55;4.15;;;;;;;11.36;76.44;98482.66;5075358;28;20169;-82
2022/09/24 06:03:31;;;;;;;5.40;4.88;;;;;;;11.43;76.21;98478.66;5094223;28;20436;-83
2022/09/24 06:06:00;;;;;;;7.35;4.65;;;;;;;11.37;76.79;98473.56;5109480;28;20032;-82
2022/09/24 06:08:27;;;;;;;4.30;3.90;;;;;;;11.36;76.54;98458.59;5110565;28;20056;-82
2022/09/24 06:11:01;;;;;;;9.65;5.00;;;;;;;11.22;77.00;98455.59;5106208;28;20088;-82
2022/09/24 06:13:27;;;;;;;6.35;4.78;;;;;;;11.18;76.78;98465.22;5104756;28;20051;-82
2022/09/24 06:15:59;;;;;;;6.18;4.82;;;;;;;11.14;76.90;98459.56;5106299;27;20066;-81
2022/09/24 06:18:24;;;;;;;5.50;5.00;;;;;;;11.18;76.42;98459.88;5107379;28;20031;-82
2022/09/24 06:20:50;;;;;;;5.78;5.00;;;;;;;11.30;76.69;98476.47;5075368;28;20100;-83
2022/09/24 06:23:15;;;;;;;7.03;5.13;;;;;;;11.10;78.10;98465.69;5103951;28;20124;-82
2022/09/24 06:25:40;;;;;;;5.25;4.75;;;;;;;11.34;77.12;98474.88;5126972;27;20039;-82
2022/09/24 06:28:06;;;;;;;6.45;5.68;;;;;;;11.33;77.03;98465.28;5105703;28;20471;-80
2022/09/24 06:30:35;;;;;;;10.65;4.90;;;;;;;11.39;76.24;98468.75;5089398;28;20027;-80
2022/09/24 06:33:05;;;;;;;7.10;4.88;;;;;;;11.57;76.71;98481.63;5102079;28;20452;-80
2022/09/24 06:35:38;;;;;;;8.75;5.47;;;;;;;11.61;76.37;98478.19;5108880;28;20031;-80
2022/09/24 06:38:05;;;;;;;7.32;6.50;;;;;;;11.42;77.18;98481.59;5095600;28;20035;-82
2022/09/24 06:40:31;;;;;;;14.23;5.97;;;;;;;11.43;77.51;98485.84;5107778;28;20050;-80
2022/09/24 06:42:57;;;;;;;7.05;6.30;;;;;;;11.22;77.60;98463.63;5112164;28;20043;-81
2022/09/24 06:45:23;;;;;;;7.93;6.20;;;;;;;11.20;77.88;98461.19;5096352;28;20027;-80
2022/09/24 06:48:00;;;;;;;11.13;6.45;;;;;;;11.15;79.95;98479.91;5077668;28;20475;-82
2022/09/24 06:50:26;;;;;;;;;;;;;;;11.44;77.48;98482.94;5111358;28;20046;-80
2022/09/24 06:52:52;;;;;;;7.88;7.07;;;;;;;11.26;78.57;98476.19;5090817;28;19916;-80
2022/09/24 06:55:18;;;;;;;10.07;8.30;;;;;;;10.86;80.62;98491.22;5100873;28;20039;-80
2022/09/24 06:57:44;;;;;;;10.88;6.57;;;;;;;11.39;78.31;98468.75;5084221;28;20466;-80
2022/09/24 07:00:11;;;;;;;8.85;7.45;;;;;;;11.13;79.05;98483.88;5103845;28;20118;-80
2022/09/24 07:02:37;;;;;;;13.38;8.52;;;;;;;10.61;81.48;98465.19;5083885;28;20962;-82
2022/09/24 07:05:03;;;;;;;10.55;8.27;;;;;;;10.75;81.41;98473.53;5109951;28;20028;-80
2022/09/24 07:07:28;;;;;;;12.23;8.23;;;;;;;10.76;82.21;98470.63;5101895;28;20122;-80
2022/09/24 07:10:04;;;;;;;10.20;8.73;;;;;;;10.88;82.90;98457.03;5073087;28;20037;-80
2022/09/24 07:12:31;;;;;;;10.52;8.95;;;;;;;10.84;82.65;98482.66;5107928;28;20034;-81
2022/09/24 07:14:57;;;;;;;11.52;10.18;;;;;;;10.60;82.54;98478.78;5109048;28;20054;-81
2022/09/24 07:17:26;;;;;;;15.95;10.93;;;;;;;10.67;81.75;98474.03;5095062;28;20038;-82
2022/09/24 07:19:52;;;;;;;9.80;8.68;;;;;;;10.84;83.02;98486.13;5103242;28;20368;-82
2022/09/24 07:22:18;;;;;;;10.35;9.07;;;;;;;10.58;83.46;98476.38;5106650;28;20022;-81
2022/09/24 07:24:43;;;;;;;11.70;8.52;;;;;;;10.86;84.53;98472.53;5105796;27;20024;-81
2022/09/24 07:27:09;;;;;;;9.80;8.65;;;;;;;11.10;83.92;98471.03;5092175;28;20038;-82
2022/09/24 07:29:34;;;;;;;13.90;8.77;;;;;;;11.03;83.19;98475.84;5106515;27;20502;-82
2022/09/24 07:32:02;;;;;;;9.02;7.75;;;;;;;11.05;82.13;98474.50;5106967;28;20094;-82
2022/09/24 07:34:27;;;;;;;7.13;5.40;;;;;;;11.68;78.34;98491.31;5103407;28;20028;-82
2022/09/24 07:36:54;;;;;;;10.57;7.40;;;;;;;11.46;80.88;98480.81;5093902;28;20046;-81
2022/09/24 07:39:20;;;;;;;9.48;8.07;;;;;;;11.73;80.16;98497.47;5108776;28;20057;-82
2022/09/24 07:41:46;;;;;;;8.40;6.57;;;;;;;11.84;78.05;98488.41;5107905;28;20059;-82
2022/09/24 07:44:11;;;;;;;10.13;8.57;;;;;;;11.70;81.56;98511.38;5110744;28;20027;-82
2022/09/24 07:46:36;;;;;;;9.77;7.05;;;;;;;11.79;78.87;98507.13;5082182;28;20024;-81
2022/09/24 07:49:02;;;;;;;14.18;9.57;;;;;;;11.49;80.51;98490.19;5108186;27;20107;-82
2022/09/24 07:51:28;;;;;;;8.80;5.65;;;;;;;11.71;78.91;98482.75;5101829;28;20015;-82
2022/09/24 07:53:55;;;;;;;9.32;6.05;;;;;;;12.19;77.26;98501.00;5107752;28;20027;-82
2022/09/24 07:56:21;;;;;;;8.90;5.78;;;;;;;12.13;77.70;98494.06;5103274;28;20424;-82
2022/09/24 07:58:50;;;;;;;12.23;10.10;;;;;;;11.52;79.63;98505.66;5088468;28;20034;-82
2022/09/24 08:01:16;;;;;;;13.13;9.57;;;;;;;11.56;80.07;98518.25;5098800;28;20023;-82
2022/09/24 08:03:43;;;;;;;12.60;8.80;;;;;;;11.63;82.11;98518.00;5090764;28;20073;-82
2022/09/24 08:06:08;;;;;;;16.10;9.95;;;;;;;11.48;80.76;98509.94;5117953;27;20057;-82
2022/09/24 08:08:34;;;;;;;11.13;9.15;;;;;;;11.57;80.44;98506.50;5093063;27;20031;-82
2022/09/24 08:11:08;;;;;;;11.75;9.38;;;;;;;11.57;81.59;98506.50;5103631;28;20032;-82
2022/09/24 08:13:33;;;;;;;10.90;7.30;;;;;;;12.07;79.26;98523.75;5103458;27;20380;-81
2022/09/24 08:16:00;;;;;;;10.95;8.50;;;;;;;11.89;80.00;98517.84;5109766;28;20115;-82
2022/09/24 08:18:27;;;;;;;10.65;9.57;;;;;;;11.88;80.27;98526.91;5107787;28;20033;-81
2022/09/24 08:20:52;;;;;;;14.73;9.50;;;;;;;11.79;80.93;98517.00;5108645;28;20028;-81
2022/09/24 08:23:17;;;;;;;16.15;9.75;;;;;;;11.75;80.46;98516.72;5092700;28;20039;-82
2022/09/24 08:25:43;;;;;;;11.60;10.02;;;;;;;11.88;79.35;98518.88;5101428;28;20763;-82
2022/09/24 08:28:11;;;;;;;9.95;8.15;;;;;;;11.95;80.47;98495.38;5110276;27;20035;-82
2022/09/24 08:30:38;;;;;;;13.13;9.35;;;;;;;12.29;79.30;98524.31;5091586;28;20110;-82
2022/09/24 08:33:06;;;;;;;11.63;9.63;;;;;;;12.10;80.61;98521.31;5105812;28;20081;-82
2022/09/24 08:35:33;;;;;;;13.63;9.65;;;;;;;12.12;79.94;98505.03;5083354;28;20028;-82
2022/09/24 08:38:00;;;;;;;17.85;10.32;;;;;;;12.14;81.04;98526.97;5107130;28;20423;-82
2022/09/24 08:40:29;;;;;;;9.55;7.82;;;;;;;12.15;80.23;98517.84;5116515;27;20503;-82
2022/09/24 08:43:17;;;;;;;12.05;9.80;;;;;;;12.03;79.24;98523.47;5105976;28;20054;-82
2022/09/24 08:48:38;;;;;;;12.77;9.82;;;;;;;12.08;78.95;98512.00;5105793;28;20058;-82
2022/09/24 08:51:11;;;;;;;13.38;10.25;;;;;;;12.20;78.74;98516.00;5090348;28;20031;-82
2022/09/24 08:53:36;;;;;;;13.02;9.60;;;;;;;12.26;78.68;98522.16;5095304;28;20046;-82
2022/09/24 08:56:04;;;;;;;10.63;7.88;;;;;;;12.61;78.42;98522.97;5104365;28;20027;-83
2022/09/24 08:58:51;;;;;;;10.25;7.18;;;;;;;12.59;78.49;98521.63;5106929;28;20039;-83
2022/09/24 09:01:21;;;;;;;13.02;8.90;;;;;;;12.43;79.08;98482.53;5102093;28;20502;-83
2022/09/24 09:04:27;;;;;;;19.50;9.38;;;;;;;12.77;79.12;98519.19;5105402;28;20173;-82
2022/09/24 09:07:19;;;;;;;14.63;9.15;;;;;;;12.75;78.03;98523.22;5105667;28;20027;-82
2022/09/24 09:10:04;;;;;;;8.00;5.43;;;;;;;13.23;76.50;98521.78;5105666;28;20081;-83
2022/09/24 09:12:42;;;;;;;10.52;8.35;;;;;;;13.07;77.35;98517.53;5106914;28;20047;-82
2022/09/24 09:15:16;;;;;;;11.43;8.48;;;;;;;12.87;76.95;98504.97;5108165;27;20028;-82
2022/09/24 09:18:11;;;;;;;14.20;7.13;;;;;;;13.20;76.45;98506.25;5090163;28;20027;-82
2022/09/24 09:20:42;;;;;;;11.27;8.57;;;;;;;13.41;77.35;98521.19;5096354;27;20039;-82
2022/09/24 09:23:25;;;;;;;14.82;8.95;;;;;;;13.38;77.36;98522.53;5107894;27;20022;-83
2022/09/24 09:25:58;;;;;;;13.32;8.88;;;;;;;13.37;74.95;98498.66;5104393;28;20110;-83
2022/09/24 09:28:28;;;;;;;12.15;8.88;;;;;;;13.61;74.95;98514.94;5087432;28;20469;-82
2022/09/24 09:31:25;;;;;;;11.18;9.05;;;;;;;13.78;75.17;98508.13;5086466;28;20688;-82
2022/09/24 09:34:11;;;;;;;12.00;9.18;;;;;;;13.84;72.80;98514.28;5106520;28;20079;-83
2022/09/24 09:37:22;;;;;;;13.32;9.15;;;;;;;13.95;73.66;98494.34;5103065;28;20028;-82
2022/09/24 09:40:17;;;;;;;12.85;9.85;;;;;;;14.20;71.42;98510.25;5107597;28;20098;-82
2022/09/24 09:42:44;;;;;;;11.77;8.40;;;;;;;14.26;71.50;98504.56;5107159;28;20115;-82
2022/09/24 09:45:24;;;;;;;9.13;7.47;;;;;;;14.44;72.99;98507.72;5108620;28;20027;-83
2022/09/24 09:47:54;;;;;;;10.07;7.65;;;;;;;14.46;71.20;98498.25;5106727;28;20027;-82
2022/09/24 09:50:37;;;;;;;14.88;9.40;;;;;;;14.67;68.73;98499.72;5104828;28;20069;-83
2022/09/24 09:53:04;;;;;;;16.92;9.18;;;;;;;14.71;68.27;98500.75;5104303;28;20027;-82
2022/09/24 09:55:36;;;;;;;15.10;10.20;;;;;;;14.53;66.68;98493.38;5107515;28;20098;-82
2022/09/24 09:58:14;;;;;;;16.60;10.45;;;;;;;14.55;67.07;98507.31;5101228;28;20030;-83
2022/09/24 10:00:40;;;;;;;17.70;9.48;;;;;;;14.57;67.68;98504.38;5102631;28;20063;-84
2022/09/24 10:03:19;;;;;;;14.75;9.52;;;;;;;14.45;66.11;98491.31;5103031;28;20028;-83
2022/09/24 10:05:53;;;;;;;14.68;9.60;;;;;;;14.58;67.26;98506.78;5110300;28;20024;-82
2022/09/24 10:08:20;;;;;;;14.70;9.02;;;;;;;14.68;69.34;98495.91;5104065;28;20039;-82
2022/09/24 10:10:55;;;;;;;10.60;8.00;;;;;;;14.71;70.10;98506.13;5089177;28;20063;-82
2022/09/24 10:13:21;;;;;;;11.50;7.68;;;;;;;14.78;69.55;98493.16;5098867;28;20036;-83
2022/09/24 10:15:49;;;;;;;15.13;7.72;;;;;;;15.10;68.98;98507.84;5098890;28;20077;-82
2022/09/24 10:18:15;;;;;;;19.88;11.73;;;;;;;15.02;66.34;98491.28;5102520;28;20110;-82
2022/09/24 10:20:47;;;;;;;15.02;10.32;;;;;;;15.13;64.49;98507.28;5107171;28;20035;-82
2022/09/24 10:23:20;;;;;;;14.77;10.50;;;;;;;14.97;64.41;98495.91;5102936;28;20034;-82
2022/09/24 10:25:53;;;;;;;19.25;12.18;;;;;;;14.98;65.09;98495.59;5107180;28;20027;-81
2022/09/24 10:31:13;;;;;;;17.45;10.50;;;;;;;15.28;67.57;98489.09;5102530;28;20111;-82
2022/09/24 10:33:43;;;;;;;14.60;10.50;;;;;;;15.36;67.53;98493.84;5115658;28;21660;-82
2022/09/24 10:36:34;;;;;;;15.70;10.23;;;;;;;15.27;68.02;98494.75;5099806;28;20035;-81
2022/09/24 10:39:14;;;;;;;19.08;10.40;;;;;;;15.32;67.70;98492.00;5102042;28;20027;-82
2022/09/24 10:41:54;;;;;;;16.08;10.95;;;;;;;15.41;66.08;98495.66;5101975;28;20028;-82
2022/09/24 10:44:21;;;;;;;17.70;10.25;;;;;;;15.45;66.91;98497.53;5118633;27;20104;-82
2022/09/24 10:47:21;;;;;;;17.35;9.77;;;;;;;15.56;67.76;98495.50;5102020;28;20126;-82
2022/09/24 10:49:49;;;;;;;13.50;9.30;;;;;;;15.59;66.58;98503.81;5103094;28;20035;-82
2022/09/24 10:52:43;;;;;;;11.57;9.15;;;;;;;15.67;66.96;98499.66;5102087;28;20027;-82
2022/09/24 10:55:54;;;;;;;13.50;8.25;;;;;;;15.68;66.63;98498.59;5101841;28;20382;-82
2022/09/24 10:58:34;;;;;;;11.88;9.68;;;;;;;15.69;67.24;98503.66;5044368;28;20032;-82
2022/09/24 11:01:25;;;;;;;16.67;7.20;;;;;;;15.76;66.90;98508.69;5096298;28;20045;-82
2022/09/24 11:04:06;;;;;;;10.00;7.35;;;;;;;15.79;66.24;98512.69;5104343;28;20122;-83
2022/09/24 11:06:47;;;;;;;8.98;6.85;;;;;;;15.81;67.33;98505.13;5101689;28;20032;-82
2022/09/24 11:09:30;;;;;;;15.93;6.40;;;;;;;15.77;67.66;98493.34;5101844;28;20027;-83
2022/09/24 11:12:14;;;;;;;18.80;7.40;;;;;;;15.88;67.45;98508.28;5105810;28;20028;-83
2022/09/24 11:14:52;;;;;;;9.25;5.60;;;;;;;15.81;66.53;98488.97;5100936;27;20035;-82
2022/09/24 11:17:41;;;;;;;13.10;8.65;;;;;;;15.77;66.09;98474.50;5102383;28;20023;-82
2022/09/24 11:20:28;;;;;;;53.05;14.60;;;;;;;15.87;64.89;98499.38;5102474;28;20024;-82
2022/09/24 11:23:06;;;;;;;40.10;11.32;;;;;;;15.89;66.22;98497.19;5104214;28;20062;-82
2022/09/24 11:25:45;;;;;;;13.30;7.78;;;;;;;15.95;64.83;98500.59;5099676;28;20034;-82
2022/09/24 11:28:38;;;;;;;5.93;4.45;;;;;;;16.13;65.78;98500.63;5104267;28;20092;-82
2022/09/24 11:31:13;;;;;;;8.13;6.00;;;;;;;16.24;65.76;98496.66;5104147;28;20364;-82
2022/09/24 11:34:02;;;;;;;12.07;5.80;;;;;;;16.27;65.87;98504.16;5104130;28;20027;-82
2022/09/24 11:36:37;;;;;;;12.95;8.23;;;;;;;16.31;63.93;98490.91;5101115;28;20028;-83
2022/09/24 11:39:29;;;;;;;10.55;7.97;;;;;;;16.24;63.12;98482.41;5100885;28;20161;-82
2022/09/24 11:42:18;;;;;;;6.70;4.60;;;;;;;16.40;65.38;98498.00;5121806;27;20442;-82
2022/09/24 11:45:04;;;;;;;12.77;7.57;;;;;;;16.44;65.26;98490.16;5105422;28;20081;-83
2022/09/24 11:47:44;;;;;;;7.95;5.43;;;;;;;16.60;64.86;98496.13;5103779;28;20078;-83
2022/09/24 11:50:31;;;;;;;13.40;8.27;;;;;;;16.72;63.34;98496.44;5104420;28;20028;-82
2022/09/24 11:53:13;;;;;;;11.27;8.73;;;;;;;16.75;62.31;98490.47;5105364;28;20554;-82
2022/09/24 11:55:45;;;;;;;7.18;5.47;;;;;;;16.91;63.92;98462.91;5110138;28;20031;-82
2022/09/24 11:58:48;;;;;;;9.68;7.78;;;;;;;17.13;63.29;98467.63;5106608;28;20110;-82
2022/09/24 12:01:18;;;;;;;10.15;5.68;;;;;;;17.23;63.49;98479.00;5096780;28;20125;-82